Time;durP1;ratioP1;P1;durP2;ratioP2;P2;SDS_P1;SDS_P2;PMS_P1;PMS_P2;Temp;Humidity;BMP_temperature;BMP_pressure;BME280_temperature;BME280_humidity;BME280_pressure;Samples;Min_cycle;Max_cycle;Signal;HPM_P1;HPM_P2
2022/12/20 00:01:19;;;;;;;19.55;17.45;;;24.30;66.30;;;;;;6298489;27;84952;-66
2022/12/20 00:04:21;;;;;;;18.83;16.92;;;24.30;66.20;;;;;;6306991;27;83992;-66
2022/12/20 00:07:23;;;;;;;18.15;16.20;;;24.30;66.20;;;;;;6295747;27;83998;-67
2022/12/20 00:10:26;;;;;;;17.73;15.93;;;24.30;66.20;;;;;;6307263;27;83850;-66
2022/12/20 00:13:28;;;;;;;18.38;16.48;;;24.30;66.20;;;;;;6298993;27;84828;-66
2022/12/20 00:16:30;;;;;;;17.25;15.45;;;24.30;66.30;;;;;;6301768;27;82950;-66
2022/12/20 00:19:32;;;;;;;18.58;15.90;;;24.30;66.20;;;;;;6306005;27;84109;-66
2022/12/20 00:22:34;;;;;;;17.52;15.73;;;24.20;66.20;;;;;;6294084;27;83620;-66
2022/12/20 00:25:38;;;;;;;20.45;15.55;;;24.30;66.30;;;;;;6306484;27;84089;-66
2022/12/20 00:28:41;;;;;;;17.45;15.55;;;24.20;66.10;;;;;;6308243;27;84021;-66
2022/12/20 00:31:43;;;;;;;17.20;15.23;;;24.20;65.20;;;;;;6305038;27;84921;-66
2022/12/20 00:34:45;;;;;;;16.90;15.10;;;24.20;64.70;;;;;;6283942;27;84002;-66
2022/12/20 00:37:47;;;;;;;16.55;14.75;;;24.20;64.40;;;;;;6302233;27;83259;-66
2022/12/20 00:40:59;;;;;;;17.23;15.43;;;24.20;64.30;;;;;;6301200;27;84934;-65
2022/12/20 00:44:02;;;;;;;16.67;14.88;;;24.20;64.00;;;;;;6310391;27;84022;-66
2022/12/20 00:47:04;;;;;;;16.63;14.90;;;24.20;64.00;;;;;;6306618;27;82959;-66
2022/12/20 00:50:07;;;;;;;16.30;14.60;;;24.20;64.00;;;;;;6300752;27;83982;-66
2022/12/20 00:53:09;;;;;;;16.67;14.95;;;24.10;64.70;;;;;;6300027;27;83621;-65
2022/12/20 00:56:14;;;;;;;16.88;15.07;;;24.10;63.70;;;;;;6304209;27;84182;-66
2022/12/20 00:59:16;;;;;;;16.38;14.30;;;24.10;63.60;;;;;;6305106;27;83989;-66
2022/12/20 01:02:18;;;;;;;17.02;15.25;;;24.10;63.50;;;;;;6309934;27;85015;-65
2022/12/20 01:05:20;;;;;;;16.63;14.93;;;24.10;63.40;;;;;;6306356;27;85531;-66
2022/12/20 01:08:24;;;;;;;16.38;14.68;;;24.10;63.30;;;;;;6297076;27;84005;-65
2022/12/20 01:11:29;;;;;;;17.40;15.20;;;24.10;63.20;;;;;;6300238;27;82921;-66
2022/12/20 01:14:31;;;;;;;15.13;13.63;;;24.00;63.00;;;;;;6300846;27;84054;-65
2022/12/20 01:17:33;;;;;;;15.57;14.00;;;24.10;63.00;;;;;;6308113;27;84123;-65
2022/12/20 01:20:35;;;;;;;16.33;14.65;;;24.10;63.00;;;;;;6309847;27;83472;-66
2022/12/20 01:23:37;;;;;;;15.25;13.75;;;24.00;62.90;;;;;;6301340;27;83233;-66
2022/12/20 01:26:41;;;;;;;15.27;13.77;;;24.10;62.90;;;;;;6301639;27;84118;-66
2022/12/20 01:29:43;;;;;;;15.70;14.07;;;24.00;62.80;;;;;;6304464;27;84029;-66
2022/12/20 01:32:45;;;;;;;16.05;14.45;;;24.00;62.80;;;;;;6304459;27;85193;-65
2022/12/20 01:35:56;;;;;;;15.27;13.75;;;24.00;62.80;;;;;;6301492;27;83977;-66
2022/12/20 01:39:00;;;;;;;15.20;13.70;;;24.00;62.70;;;;;;6308665;27;84054;-66
2022/12/20 01:42:04;;;;;;;16.23;14.45;;;24.00;62.70;;;;;;6303985;27;84017;-66
2022/12/20 01:45:13;;;;;;;15.25;13.52;;;24.00;62.60;;;;;;6299073;27;83094;-66
2022/12/20 01:48:21;;;;;;;15.02;13.52;;;24.00;62.50;;;;;;6296819;27;84352;-66
2022/12/20 01:51:25;;;;;;;15.32;13.82;;;24.00;62.40;;;;;;6309759;27;84272;-66
2022/12/20 01:54:32;;;;;;;14.73;13.27;;;24.00;62.40;;;;;;6293150;27;83315;-67
2022/12/20 01:57:44;;;;;;;15.43;13.88;;;24.00;62.40;;;;;;6289302;27;84067;-66
2022/12/20 02:00:46;;;;;;;15.10;13.60;;;24.00;62.30;;;;;;6304785;27;84385;-66
2022/12/20 02:03:50;;;;;;;15.07;13.48;;;24.00;62.30;;;;;;6292533;27;84894;-66
2022/12/20 02:06:52;;;;;;;13.82;12.43;;;24.00;62.30;;;;;;6292212;27;83995;-65
2022/12/20 02:09:56;;;;;;;14.90;13.35;;;24.00;62.30;;;;;;6296614;27;86965;-65
2022/12/20 02:13:11;;;;;;;14.80;13.30;;;23.90;62.30;;;;;;6306153;27;84490;-66
2022/12/20 02:16:18;;;;;;;15.07;13.57;;;23.90;62.30;;;;;;6296459;27;83944;-66
2022/12/20 02:19:49;;;;;;;14.07;12.63;;;23.90;62.30;;;;;;6297782;27;84028;-66
2022/12/20 02:23:04;;;;;;;14.30;12.90;;;23.90;62.20;;;;;;6298810;27;84014;-66
2022/12/20 02:26:23;;;;;;;14.93;13.43;;;23.90;62.10;;;;;;6308082;27;85008;-65
2022/12/20 02:29:35;;;;;;;15.05;13.45;;;23.90;62.10;;;;;;6309490;27;83953;-66
2022/12/20 02:32:42;;;;;;;14.45;13.05;;;23.90;62.20;;;;;;6306357;27;83973;-66
2022/12/20 02:35:44;;;;;;;14.65;13.25;;;23.90;62.20;;;;;;6299393;27;83982;-65
2022/12/20 02:38:46;;;;;;;14.15;12.75;;;23.90;62.10;;;;;;6300026;27;84748;-66
2022/12/20 02:41:55;;;;;;;14.25;12.85;;;23.90;62.00;;;;;;6308906;27;85759;-66
2022/12/20 02:45:14;;;;;;;14.93;13.43;;;23.90;62.00;;;;;;6301679;27;82935;-66
2022/12/20 02:48:18;;;;;;;14.73;13.23;;;23.90;61.90;;;;;;6301914;27;84033;-66
2022/12/20 02:51:23;;;;;;;14.57;13.13;;;23.90;61.80;;;;;;6304430;27;84369;-65
2022/12/20 02:54:26;;;;;;;14.18;12.77;;;23.90;61.80;;;;;;6307904;27;82866;-66
2022/12/20 02:57:33;;;;;;;13.88;12.57;;;23.90;61.80;;;;;;6309776;27;84657;-65
2022/12/20 03:00:43;;;;;;;14.25;12.75;;;23.80;61.80;;;;;;6295312;27;84129;-65
2022/12/20 03:03:46;;;;;;;13.88;12.48;;;23.90;61.80;;;;;;6295314;27;84321;-66
2022/12/20 03:07:03;;;;;;;14.75;13.05;;;23.80;61.90;;;;;;6307888;27;84904;-66
2022/12/20 03:10:06;;;;;;;14.23;12.90;;;23.90;61.90;;;;;;6307310;27;84008;-66
2022/12/20 03:13:08;;;;;;;14.77;13.27;;;23.80;61.80;;;;;;6300933;27;83446;-66
2022/12/20 03:16:10;;;;;;;14.85;13.35;;;23.80;61.80;;;;;;6283288;27;83050;-66
2022/12/20 03:19:14;;;;;;;14.25;12.75;;;23.80;61.80;;;;;;6307615;27;84124;-66
2022/12/20 03:22:16;;;;;;;14.10;12.70;;;23.80;61.80;;;;;;6299242;27;84098;-65
2022/12/20 03:25:18;;;;;;;13.82;12.43;;;23.80;61.90;;;;;;6289994;27;82993;-66
2022/12/20 03:28:20;;;;;;;13.77;12.38;;;23.80;61.90;;;;;;6296697;27;83450;-66
2022/12/20 03:31:22;;;;;;;13.98;12.57;;;23.80;61.90;;;;;;6307383;27;84013;-66
2022/12/20 03:34:25;;;;;;;13.90;12.50;;;23.80;61.90;;;;;;6298436;27;83931;-66
2022/12/20 03:37:27;;;;;;;13.73;12.32;;;23.80;61.90;;;;;;6301399;27;83950;-65
2022/12/20 03:40:29;;;;;;;14.93;13.40;;;23.80;62.00;;;;;;6300606;27;84227;-66
2022/12/20 03:43:31;;;;;;;14.02;12.60;;;23.80;62.00;;;;;;6307091;27;84149;-65
2022/12/20 03:46:33;;;;;;;13.98;12.57;;;23.80;62.00;;;;;;6285546;27;82891;-65
2022/12/20 03:49:37;;;;;;;15.07;13.48;;;23.80;62.00;;;;;;6292722;27;84327;-66
2022/12/20 03:52:39;;;;;;;13.63;12.10;;;23.80;62.00;;;;;;6297423;27;83941;-66
2022/12/20 03:55:41;;;;;;;13.20;11.90;;;23.80;62.00;;;;;;6296924;27;84333;-66
2022/12/20 03:58:43;;;;;;;14.02;12.50;;;23.80;61.90;;;;;;6308429;27;83268;-66
2022/12/20 04:01:45;;;;;;;14.05;12.55;;;23.70;61.80;;;;;;6307047;27;84035;-66
2022/12/20 04:04:48;;;;;;;12.63;11.32;;;23.80;61.90;;;;;;6294527;27;86355;-66
2022/12/20 04:07:50;;;;;;;13.35;11.95;;;23.80;61.90;;;;;;6305780;27;84867;-65
2022/12/20 04:14:11;;;;;;;12.98;11.68;;;23.80;61.80;;;;;;6301344;27;83515;-65
2022/12/20 04:17:14;;;;;;;13.13;11.82;;;23.80;61.80;;;;;;6306497;27;82965;-66
2022/12/20 04:20:20;;;;;;;13.10;11.82;;;23.80;61.60;;;;;;6301931;27;84027;-66
2022/12/20 04:23:22;;;;;;;12.65;11.45;;;23.80;61.60;;;;;;6290887;27;84281;-65
2022/12/20 04:26:25;;;;;;;12.57;11.27;;;23.90;61.70;;;;;;6302508;27;84046;-65
2022/12/20 04:29:28;;;;;;;13.43;12.13;;;23.90;61.60;;;;;;6304703;27;83429;-65
2022/12/20 04:32:30;;;;;;;13.02;11.68;;;23.80;61.60;;;;;;6307460;27;84141;-66
2022/12/20 04:35:33;;;;;;;13.02;11.75;;;23.90;61.60;;;;;;6293322;27;84042;-66
2022/12/20 04:38:35;;;;;;;13.90;12.50;;;23.80;61.50;;;;;;6306040;27;85773;-65
2022/12/20 04:41:37;;;;;;;13.57;12.18;;;23.80;61.30;;;;;;6290261;27;84043;-65
2022/12/20 04:44:39;;;;;;;15.32;13.38;;;23.80;61.30;;;;;;6290894;27;84980;-65
2022/12/20 04:47:41;;;;;;;13.60;12.20;;;23.80;61.40;;;;;;6293687;27;84332;-66
2022/12/20 04:50:48;;;;;;;14.23;12.82;;;23.90;61.40;;;;;;6295772;27;84025;-66
2022/12/20 04:53:50;;;;;;;14.00;12.60;;;23.90;61.30;;;;;;6304107;27;84111;-66
2022/12/20 04:56:52;;;;;;;13.90;12.50;;;23.90;61.40;;;;;;6306337;27;84352;-66
2022/12/20 04:59:54;;;;;;;14.32;12.85;;;23.80;61.30;;;;;;6303276;27;83390;-66
2022/12/20 05:02:56;;;;;;;15.40;13.68;;;23.90;61.30;;;;;;6305369;27;84091;-66
2022/12/20 05:05:59;;;;;;;15.00;13.50;;;23.80;61.20;;;;;;6291950;27;84085;-66
2022/12/20 05:09:01;;;;;;;15.73;14.13;;;23.90;61.20;;;;;;6305898;27;85237;-66
2022/12/20 05:12:04;;;;;;;16.38;14.32;;;23.80;61.10;;;;;;6294034;27;84209;-65
2022/12/20 05:15:06;;;;;;;15.30;13.80;;;23.80;61.10;;;;;;6298639;27;83946;-66
2022/12/20 05:18:09;;;;;;;15.05;13.55;;;23.90;61.10;;;;;;6300995;27;84409;-66
2022/12/20 05:27:51;;;;;;;16.73;15.00;;;23.90;61.10;;;;;;6310960;27;84013;-67
2022/12/20 05:30:53;;;;;;;17.00;15.30;;;23.80;61.00;;;;;;6304712;27;83290;-65
2022/12/20 05:33:55;;;;;;;16.73;15.02;;;23.80;61.10;;;;;;6290779;27;83884;-66
2022/12/20 05:36:58;;;;;;;16.80;15.10;;;23.80;61.10;;;;;;6291462;27;84076;-65
2022/12/20 05:40:01;;;;;;;16.50;14.88;;;23.80;61.00;;;;;;6309094;27;84943;-65
2022/12/20 05:43:03;;;;;;;18.27;15.73;;;23.80;61.00;;;;;;6293999;27;83982;-66
2022/12/20 05:46:05;;;;;;;17.40;15.60;;;23.80;61.00;;;;;;6310313;27;85209;-65
2022/12/20 05:49:07;;;;;;;16.60;14.90;;;23.80;60.60;;;;;;6311136;27;84026;-66
2022/12/20 05:52:10;;;;;;;16.58;14.88;;;23.80;60.80;;;;;;6309799;27;84032;-66
2022/12/20 05:55:12;;;;;;;16.10;14.43;;;23.80;61.30;;;;;;6309434;27;83006;-65
2022/12/20 05:58:15;;;;;;;15.80;14.20;;;23.80;61.80;;;;;;6307605;27;84553;-65
2022/12/20 06:01:17;;;;;;;15.90;14.32;;;23.80;62.10;;;;;;6303175;27;83299;-64
2022/12/20 06:04:19;;;;;;;16.13;14.52;;;23.70;62.10;;;;;;6298297;27;84461;-64
2022/12/20 06:07:22;;;;;;;16.35;14.68;;;23.70;62.20;;;;;;6300543;27;83965;-65
2022/12/20 06:10:24;;;;;;;16.38;14.68;;;23.70;62.50;;;;;;6296916;27;83842;-65
2022/12/20 06:13:26;;;;;;;16.63;14.85;;;23.70;62.70;;;;;;6307147;27;83980;-65
2022/12/20 06:16:28;;;;;;;15.82;14.32;;;23.70;62.80;;;;;;6300398;27;83989;-64
2022/12/20 06:19:30;;;;;;;16.40;14.70;;;23.70;62.90;;;;;;6309821;27;84057;-65
2022/12/20 06:22:33;;;;;;;15.88;14.27;;;23.60;62.90;;;;;;6306178;27;84070;-64
2022/12/20 06:25:37;;;;;;;16.20;14.50;;;23.60;63.10;;;;;;6299107;27;83315;-65
2022/12/20 06:28:41;;;;;;;15.98;14.32;;;23.60;63.20;;;;;;6308423;27;83910;-65
2022/12/20 06:31:43;;;;;;;16.48;14.77;;;23.60;63.30;;;;;;6296813;27;83485;-65
2022/12/20 06:34:45;;;;;;;16.15;14.57;;;23.60;63.50;;;;;;6298892;27;83678;-65
2022/12/20 06:37:49;;;;;;;15.30;13.80;;;23.50;63.60;;;;;;6309279;27;84284;-65
2022/12/20 06:40:51;;;;;;;15.82;14.23;;;23.50;63.60;;;;;;6307196;27;85840;-65
2022/12/20 06:43:53;;;;;;;16.00;14.38;;;23.50;63.70;;;;;;6309080;27;83996;-65
2022/12/20 06:46:55;;;;;;;15.38;13.88;;;23.50;63.70;;;;;;6307981;27;84041;-65
2022/12/20 06:49:57;;;;;;;16.02;14.48;;;23.50;63.80;;;;;;6308873;27;83714;-65
2022/12/20 06:53:00;;;;;;;16.10;14.50;;;23.50;63.90;;;;;;6308787;27;84288;-64
2022/12/20 06:56:02;;;;;;;15.07;13.57;;;23.60;64.00;;;;;;6295981;27;84082;-65
2022/12/20 06:59:05;;;;;;;16.00;14.40;;;23.60;64.00;;;;;;6295670;27;84450;-64
2022/12/20 07:02:07;;;;;;;15.20;13.70;;;23.60;64.10;;;;;;6308356;27;83349;-65
2022/12/20 07:05:09;;;;;;;14.88;13.38;;;23.60;64.20;;;;;;6295851;27;82934;-65
2022/12/20 07:08:13;;;;;;;14.90;13.48;;;23.50;64.10;;;;;;6306098;27;83643;-65
2022/12/20 07:11:15;;;;;;;15.45;13.88;;;23.60;64.20;;;;;;6307743;27;84951;-65
2022/12/20 07:14:17;;;;;;;15.27;13.77;;;23.60;64.20;;;;;;6307263;27;84124;-65
2022/12/20 07:17:19;;;;;;;15.05;13.52;;;23.60;64.20;;;;;;6295090;27;84053;-64
2022/12/20 07:20:21;;;;;;;15.95;14.25;;;23.60;64.30;;;;;;6306850;27;83236;-65
2022/12/20 07:23:24;;;;;;;15.40;13.80;;;23.60;64.30;;;;;;6293037;27;84024;-65
2022/12/20 07:26:26;;;;;;;14.85;13.35;;;23.60;64.30;;;;;;6300206;27;82974;-65
2022/12/20 07:29:28;;;;;;;14.43;12.95;;;23.60;64.40;;;;;;6307392;27;83967;-65
2022/12/20 07:32:31;;;;;;;15.80;14.20;;;23.60;64.40;;;;;;6305581;27;83327;-65
2022/12/20 07:35:32;;;;;;;14.75;13.25;;;23.60;64.40;;;;;;6304114;27;82928;-65
2022/12/20 07:38:36;;;;;;;14.30;12.90;;;23.60;64.50;;;;;;6307585;27;83955;-65
2022/12/20 07:41:38;;;;;;;14.77;13.23;;;23.60;64.60;;;;;;6301971;27;85075;-65
2022/12/20 07:44:40;;;;;;;15.13;13.52;;;23.60;64.60;;;;;;6285297;27;84897;-65
2022/12/20 07:47:42;;;;;;;14.90;13.40;;;23.60;64.70;;;;;;6305684;27;82936;-65
2022/12/20 07:50:44;;;;;;;14.32;12.82;;;23.60;64.70;;;;;;6295815;27;84114;-65
2022/12/20 07:53:51;;;;;;;14.30;12.90;;;23.60;64.70;;;;;;6307876;27;85847;-65
2022/12/20 07:56:57;;;;;;;14.25;12.85;;;23.60;64.70;;;;;;6307841;27;83937;-65
2022/12/20 08:00:01;;;;;;;13.60;12.30;;;23.60;64.80;;;;;;6298144;27;84136;-65
2022/12/20 08:03:11;;;;;;;13.65;12.25;;;23.60;64.80;;;;;;6291722;27;83315;-65
2022/12/20 08:06:14;;;;;;;13.55;12.25;;;23.60;64.90;;;;;;6293737;27;82928;-65
2022/12/20 08:09:18;;;;;;;13.73;12.32;;;23.60;64.90;;;;;;6303076;27;84059;-65
2022/12/20 08:12:21;;;;;;;13.88;12.48;;;23.60;64.90;;;;;;6284074;27;85548;-65
2022/12/20 08:15:23;;;;;;;13.45;12.05;;;23.70;65.10;;;;;;6296102;27;84123;-64
2022/12/20 08:18:26;;;;;;;13.48;12.07;;;23.70;65.10;;;;;;6288867;27;84034;-65
2022/12/20 08:21:28;;;;;;;13.20;11.90;;;23.70;65.10;;;;;;6304599;27;84043;-65
2022/12/20 08:24:31;;;;;;;12.93;11.63;;;23.70;65.20;;;;;;6297860;27;83931;-65
2022/12/20 08:27:33;;;;;;;13.65;12.25;;;23.70;65.20;;;;;;6302719;27;83950;-65
2022/12/20 08:30:35;;;;;;;13.00;11.63;;;23.60;65.10;;;;;;6305664;27;84104;-65
2022/12/20 08:33:38;;;;;;;13.05;11.75;;;23.70;65.20;;;;;;6307019;27;82940;-65
2022/12/20 08:36:40;;;;;;;12.80;11.50;;;23.70;65.30;;;;;;6305779;27;82962;-65
2022/12/20 08:39:44;;;;;;;13.27;11.88;;;23.70;65.30;;;;;;6303903;27;84630;-65
2022/12/20 08:42:46;;;;;;;12.50;11.30;;;23.70;65.30;;;;;;6295528;27;84796;-65
2022/12/20 08:45:53;;;;;;;12.60;11.30;;;23.70;65.40;;;;;;6293408;27;84000;-65
2022/12/20 08:48:55;;;;;;;12.52;11.32;;;23.70;65.40;;;;;;6283669;27;83060;-65
2022/12/20 08:51:57;;;;;;;12.95;11.65;;;23.70;65.40;;;;;;6290244;27;82920;-65
2022/12/20 08:55:01;;;;;;;13.23;11.82;;;23.70;65.40;;;;;;6307018;27;85156;-65
2022/12/20 08:58:03;;;;;;;12.48;11.18;;;23.70;65.40;;;;;;6305445;27;84187;-65
2022/12/20 09:01:07;;;;;;;12.82;11.52;;;23.70;65.40;;;;;;6309335;27;84009;-65
2022/12/20 09:04:10;;;;;;;12.32;11.07;;;23.70;65.50;;;;;;6297878;27;83519;-65
2022/12/20 09:07:12;;;;;;;12.40;11.10;;;23.70;65.50;;;;;;6310288;27;84428;-65
2022/12/20 09:10:16;;;;;;;11.85;10.68;;;23.60;65.50;;;;;;6299146;27;84105;-65
2022/12/20 09:13:18;;;;;;;12.32;11.02;;;23.70;65.50;;;;;;6311356;27;83929;-65
2022/12/20 09:16:22;;;;;;;12.18;10.98;;;23.70;65.50;;;;;;6300262;27;84098;-65
2022/12/20 09:19:24;;;;;;;12.07;10.85;;;23.70;65.60;;;;;;6301248;27;82854;-64
2022/12/20 09:22:28;;;;;;;11.98;10.80;;;23.70;65.60;;;;;;6300079;27;82852;-65
2022/12/20 09:25:33;;;;;;;11.57;10.45;;;23.70;65.70;;;;;;6299221;27;84320;-65
2022/12/20 09:28:35;;;;;;;11.25;10.15;;;23.70;65.70;;;;;;6308295;27;84093;-65
2022/12/20 09:31:37;;;;;;;12.20;11.00;;;23.70;65.70;;;;;;6310246;27;83967;-65
2022/12/20 09:34:39;;;;;;;11.75;10.55;;;23.70;65.70;;;;;;6311607;27;83657;-65
2022/12/20 09:37:41;;;;;;;12.02;10.82;;;23.70;65.70;;;;;;6309762;27;86450;-64
2022/12/20 09:40:49;;;;;;;10.68;9.68;;;23.70;65.70;;;;;;6307690;27;83997;-65
2022/12/20 09:43:51;;;;;;;11.93;10.73;;;23.70;65.70;;;;;;6297809;27;85090;-65
2022/12/20 09:46:56;;;;;;;11.07;9.98;;;23.70;65.80;;;;;;6303414;27;84024;-65
2022/12/20 09:49:58;;;;;;;11.82;10.63;;;23.70;65.80;;;;;;6304745;27;84084;-64
2022/12/20 09:53:11;;;;;;;11.40;10.25;;;23.70;65.80;;;;;;6305417;27;83998;-65
2022/12/20 09:56:24;;;;;;;11.57;10.48;;;23.70;65.90;;;;;;6302734;27;83961;-65
2022/12/20 09:59:27;;;;;;;11.43;10.23;;;23.70;65.90;;;;;;6296188;27;83266;-65
2022/12/20 10:02:30;;;;;;;11.00;10.00;;;23.70;65.90;;;;;;6296216;27;82834;-65
2022/12/20 10:05:38;;;;;;;10.95;9.85;;;23.70;65.90;;;;;;6309263;27;84064;-65
2022/12/20 10:08:45;;;;;;;11.25;10.05;;;23.70;65.90;;;;;;6310838;27;84359;-65
2022/12/20 10:12:04;;;;;;;11.10;10.00;;;23.70;65.90;;;;;;6298317;27;84172;-65
2022/12/20 10:15:18;;;;;;;11.20;10.10;;;23.70;65.90;;;;;;6301256;27;85259;-65
2022/12/20 10:18:34;;;;;;;10.90;9.80;;;23.70;66.00;;;;;;6295012;27;84402;-65
2022/12/20 10:21:42;;;;;;;10.68;9.68;;;23.70;66.00;;;;;;6310742;27;84272;-65
2022/12/20 10:24:51;;;;;;;11.38;10.00;;;23.70;66.00;;;;;;6305568;27;83973;-65
2022/12/20 10:27:57;;;;;;;11.35;10.15;;;23.70;66.00;;;;;;6296369;27;84168;-65
2022/12/20 10:31:01;;;;;;;10.15;9.15;;;23.70;66.00;;;;;;6308058;27;84269;-65
2022/12/20 10:34:03;;;;;;;10.70;9.60;;;23.70;66.10;;;;;;6310887;27;84115;-65
2022/12/20 10:37:13;;;;;;;10.90;9.80;;;23.70;66.10;;;;;;6310037;27;83292;-65
2022/12/20 10:40:27;;;;;;;10.45;9.35;;;23.70;66.10;;;;;;6309624;27;83003;-65
2022/12/20 10:43:40;;;;;;;10.65;9.57;;;23.70;66.10;;;;;;6304942;27;84364;-65
2022/12/20 10:46:45;;;;;;;9.98;9.00;;;23.70;66.10;;;;;;6297817;27;85140;-65
2022/12/20 10:49:47;;;;;;;10.23;9.23;;;23.80;66.20;;;;;;6303833;27;84046;-65
2022/12/20 10:53:19;;;;;;;10.57;9.55;;;23.80;66.20;;;;;;6293141;27;82914;-65
2022/12/20 10:56:26;;;;;;;10.23;9.13;;;23.80;66.20;;;;;;6291015;27;83145;-65
2022/12/20 10:59:34;;;;;;;10.20;9.20;;;23.80;66.20;;;;;;6292064;27;84157;-65
2022/12/20 11:02:38;;;;;;;10.57;9.48;;;23.70;66.10;;;;;;6290842;27;83138;-65
2022/12/20 11:05:40;;;;;;;10.70;9.57;;;23.70;66.20;;;;;;6307099;27;84218;-65
2022/12/20 11:08:42;;;;;;;9.63;8.73;;;23.80;66.20;;;;;;6299357;27;83278;-65
2022/12/20 11:11:58;;;;;;;9.93;8.93;;;23.70;66.20;;;;;;6298247;27;82895;-65
2022/12/20 11:15:20;;;;;;;10.13;9.13;;;23.70;66.20;;;;;;6302233;27;84161;-64
2022/12/20 11:18:33;;;;;;;10.10;9.10;;;23.70;66.20;;;;;;6308952;27;85176;-64
2022/12/20 11:21:46;;;;;;;9.52;8.63;;;23.70;66.30;;;;;;6307431;27;84946;-65
2022/12/20 11:24:57;;;;;;;9.48;8.52;;;23.70;66.30;;;;;;6304162;27;83948;-65
2022/12/20 11:28:18;;;;;;;10.00;9.00;;;23.70;66.30;;;;;;6306946;27;84388;-64
2022/12/20 11:31:34;;;;;;;10.02;9.02;;;23.70;66.30;;;;;;6301833;27;83803;-65
2022/12/20 11:34:45;;;;;;;10.18;9.18;;;23.70;66.30;;;;;;6310246;27;84404;-64
2022/12/20 11:37:53;;;;;;;9.98;8.98;;;23.70;66.40;;;;;;6298607;27;84292;-65
2022/12/20 11:41:03;;;;;;;10.10;9.10;;;23.70;66.40;;;;;;6297950;27;83305;-65
2022/12/20 11:44:19;;;;;;;9.63;8.68;;;23.70;66.40;;;;;;6295673;27;84003;-65
2022/12/20 11:47:49;;;;;;;9.55;8.63;;;23.70;66.40;;;;;;6298763;27;83947;-64
2022/12/20 11:51:02;;;;;;;9.63;8.70;;;23.70;66.40;;;;;;6297389;27;84787;-65
2022/12/20 11:54:10;;;;;;;10.00;9.00;;;23.70;66.50;;;;;;6297403;27;84202;-65
2022/12/20 11:57:18;;;;;;;9.30;8.40;;;23.70;66.50;;;;;;6309817;27;84313;-65
2022/12/20 12:00:26;;;;;;;10.10;9.10;;;23.80;66.60;;;;;;6295648;27;83922;-65
2022/12/20 12:03:34;;;;;;;9.38;8.38;;;23.70;66.50;;;;;;6308087;27;84063;-64
2022/12/20 12:06:41;;;;;;;9.38;8.48;;;23.70;66.50;;;;;;6298977;27;83980;-64
2022/12/20 12:09:54;;;;;;;9.43;8.50;;;23.80;66.50;;;;;;6297566;27;84054;-64
2022/12/20 12:13:03;;;;;;;9.27;8.38;;;23.80;66.60;;;;;;6293856;27;83420;-64
2022/12/20 12:16:11;;;;;;;9.43;8.52;;;23.70;66.50;;;;;;6299660;27;84092;-64
2022/12/20 12:19:15;;;;;;;9.27;8.38;;;23.70;66.50;;;;;;6304775;27;83961;-65
2022/12/20 12:22:28;;;;;;;9.18;8.27;;;23.80;66.60;;;;;;6294738;27;85040;-64
2022/12/20 12:25:31;;;;;;;9.23;8.25;;;23.80;66.60;;;;;;6295049;27;84053;-65
2022/12/20 12:28:35;;;;;;;9.93;8.90;;;23.80;66.70;;;;;;6303846;27;83970;-65
2022/12/20 12:31:42;;;;;;;9.07;8.18;;;23.80;66.70;;;;;;6306327;27;83999;-65
2022/12/20 12:34:58;;;;;;;9.73;8.73;;;23.70;66.70;;;;;;6309132;27;83991;-65
2022/12/20 12:38:28;;;;;;;9.43;8.48;;;23.80;66.70;;;;;;6312397;27;84054;-64
2022/12/20 12:41:54;;;;;;;8.98;8.07;;;23.80;66.70;;;;;;6311427;27;83934;-65
2022/12/20 12:45:00;;;;;;;8.93;8.07;;;23.80;66.70;;;;;;6313510;27;83490;-65
2022/12/20 12:48:08;;;;;;;8.68;7.85;;;23.80;66.70;;;;;;6298750;27;83016;-65
2022/12/20 12:51:14;;;;;;;9.65;8.65;;;23.80;66.70;;;;;;6312243;27;84131;-65
2022/12/20 12:54:21;;;;;;;9.00;7.85;;;23.80;66.70;;;;;;6311123;27;84980;-65
2022/12/20 12:57:24;;;;;;;8.98;8.07;;;23.80;66.70;;;;;;6311625;27;84266;-65
2022/12/20 13:00:50;;;;;;;9.32;8.45;;;23.80;66.70;;;;;;6294804;27;84065;-65
2022/12/20 13:04:22;;;;;;;9.07;8.18;;;23.70;66.70;;;;;;6305764;27;84738;-64
2022/12/20 13:07:42;;;;;;;9.48;8.57;;;23.70;66.80;;;;;;6312550;27;84364;-64
2022/12/20 13:11:00;;;;;;;8.30;7.50;;;23.80;66.90;;;;;;6300421;27;84001;-65
2022/12/20 13:14:32;;;;;;;8.85;7.95;;;23.80;66.90;;;;;;6296593;27;82873;-64
2022/12/20 13:17:50;;;;;;;8.63;7.70;;;23.70;66.80;;;;;;6300489;27;82116;-64
2022/12/20 13:21:25;;;;;;;9.23;8.32;;;23.80;66.80;;;;;;6295074;27;84045;-65
2022/12/20 13:24:41;;;;;;;8.63;7.75;;;23.80;66.80;;;;;;6284808;27;84086;-64
2022/12/20 13:27:43;;;;;;;9.15;8.23;;;23.70;66.70;;;;;;6298529;27;85282;-64
2022/12/20 13:30:45;;;;;;;8.80;7.90;;;23.80;66.90;;;;;;6311982;27;83755;-64
2022/12/20 13:33:48;;;;;;;9.27;8.27;;;23.80;67.80;;;;;;6310359;27;84299;-65
2022/12/20 13:36:58;;;;;;;8.93;8.02;;;23.80;66.90;;;;;;6301755;27;84037;-64
2022/12/20 13:40:05;;;;;;;9.07;8.15;;;23.70;66.90;;;;;;6305847;27;84118;-64
2022/12/20 13:43:16;;;;;;;8.98;8.07;;;23.80;66.90;;;;;;6298302;27;83972;-65
2022/12/20 13:46:24;;;;;;;8.88;7.97;;;23.70;66.90;;;;;;6309962;27;84130;-64
2022/12/20 13:49:28;;;;;;;8.25;7.45;;;23.70;66.90;;;;;;6304679;27;83307;-65
2022/12/20 13:52:32;;;;;;;9.07;8.10;;;23.80;66.90;;;;;;6292114;27;84031;-65
2022/12/20 13:55:38;;;;;;;8.85;7.95;;;23.80;66.90;;;;;;6309548;27;83884;-65
2022/12/20 13:58:44;;;;;;;9.38;8.48;;;23.80;66.90;;;;;;6308937;27;84979;-65
2022/12/20 14:01:51;;;;;;;8.65;7.72;;;23.70;66.90;;;;;;6310264;27;84115;-64
2022/12/20 14:04:58;;;;;;;8.63;7.72;;;23.80;66.90;;;;;;6310143;27;82847;-64
2022/12/20 14:08:04;;;;;;;8.73;7.93;;;23.80;66.90;;;;;;6287951;27;84297;-65
2022/12/20 14:11:13;;;;;;;8.95;8.05;;;23.80;66.90;;;;;;6301067;27;82946;-64
2022/12/20 14:14:15;;;;;;;8.90;8.00;;;23.80;66.90;;;;;;6303620;27;84643;-64
2022/12/20 14:17:22;;;;;;;8.65;7.75;;;23.80;66.90;;;;;;6307860;27;82934;-64
2022/12/20 14:20:30;;;;;;;8.60;7.70;;;23.80;66.90;;;;;;6303854;27;83273;-64
2022/12/20 14:23:38;;;;;;;8.50;7.65;;;23.80;66.90;;;;;;6305805;27;85162;-64
2022/12/20 14:26:46;;;;;;;8.38;7.57;;;23.80;66.90;;;;;;6303126;27;85728;-64
2022/12/20 14:29:50;;;;;;;8.95;8.05;;;23.80;67.00;;;;;;6309405;27;84966;-64
2022/12/20 14:32:54;;;;;;;8.85;7.95;;;23.80;67.10;;;;;;6299008;27;83978;-64
2022/12/20 14:35:56;;;;;;;9.20;8.20;;;23.80;67.00;;;;;;6299529;27;83728;-64
2022/12/20 14:38:59;;;;;;;8.88;7.97;;;23.80;66.90;;;;;;6311404;27;84086;-64
2022/12/20 14:42:12;;;;;;;9.18;8.18;;;23.70;66.90;;;;;;6300372;27;83990;-65
2022/12/20 14:45:20;;;;;;;9.68;8.68;;;23.70;66.90;;;;;;6310283;27;84194;-64
2022/12/20 14:48:22;;;;;;;8.90;8.00;;;23.80;67.00;;;;;;6310119;27;83975;-64
2022/12/20 14:51:24;;;;;;;8.88;7.97;;;23.80;67.00;;;;;;6310156;27;82234;-64
2022/12/20 14:54:28;;;;;;;9.02;8.13;;;23.80;67.00;;;;;;6308929;27;83872;-64
2022/12/20 14:57:39;;;;;;;8.57;7.78;;;23.80;67.10;;;;;;6309780;27;84097;-65
2022/12/20 15:00:56;;;;;;;7.93;7.13;;;23.80;67.10;;;;;;6303223;27;83757;-64
2022/12/20 15:04:00;;;;;;;8.68;7.88;;;23.70;67.10;;;;;;6303605;27;82958;-65
2022/12/20 15:07:02;;;;;;;8.52;7.70;;;23.80;67.20;;;;;;6308262;27;84142;-65
2022/12/20 15:10:05;;;;;;;8.55;7.68;;;23.80;67.10;;;;;;6299162;27;84241;-65
2022/12/20 15:13:13;;;;;;;8.65;7.80;;;23.80;67.10;;;;;;6309317;27;84190;-65
2022/12/20 15:16:18;;;;;;;8.75;7.95;;;23.80;67.10;;;;;;6309602;27;83987;-64
2022/12/20 15:19:20;;;;;;;8.93;8.02;;;23.70;67.10;;;;;;6309108;27;82720;-65
2022/12/20 15:22:22;;;;;;;8.90;8.00;;;23.80;67.10;;;;;;6304604;27;81890;-64
2022/12/20 15:25:25;;;;;;;8.63;7.72;;;23.80;67.30;;;;;;6298770;27;84183;-65
2022/12/20 15:28:29;;;;;;;8.75;7.88;;;23.80;67.10;;;;;;6302811;27;84173;-64
2022/12/20 15:31:34;;;;;;;8.63;7.82;;;23.80;67.20;;;;;;6300218;27;83690;-65
2022/12/20 15:34:38;;;;;;;8.80;7.90;;;23.80;67.20;;;;;;6305734;27;84063;-65
2022/12/20 15:37:40;;;;;;;8.35;7.43;;;23.80;67.20;;;;;;6295509;27;82875;-65
2022/12/20 15:40:43;;;;;;;8.75;7.95;;;23.80;67.20;;;;;;6309177;27;84414;-65
2022/12/20 15:43:47;;;;;;;8.90;8.00;;;23.70;67.10;;;;;;6309736;27;84075;-64
2022/12/20 15:46:49;;;;;;;8.40;7.60;;;23.80;67.20;;;;;;6296655;27;82663;-65
2022/12/20 15:49:51;;;;;;;8.88;7.78;;;23.80;67.20;;;;;;6309575;27;84087;-65
2022/12/20 15:52:53;;;;;;;8.60;7.53;;;23.80;67.20;;;;;;6307775;27;83239;-65
2022/12/20 15:55:56;;;;;;;9.60;8.30;;;23.80;67.20;;;;;;6307913;27;84389;-64
2022/12/20 15:59:00;;;;;;;8.85;7.75;;;23.80;67.20;;;;;;6308946;27;84020;-65